sensor_id;sensor_type;location;lat;lon;timestamp;P1;durP1;ratioP1;P2;durP2;ratioP2
48205;SDS011;33995;48.202;16.260;2023-04-06T00:01:07;7.97;;;6.10;;
48205;SDS011;33995;48.202;16.260;2023-04-06T00:03:34;6.93;;;6.20;;
48205;SDS011;33995;48.202;16.260;2023-04-06T00:06:02;7.00;;;6.30;;
48205;SDS011;33995;48.202;16.260;2023-04-06T00:08:29;7.23;;;6.20;;
48205;SDS011;33995;48.202;16.260;2023-04-06T00:10:56;8.23;;;6.50;;
48205;SDS011;33995;48.202;16.260;2023-04-06T00:13:23;7.83;;;6.70;;
48205;SDS011;33995;48.202;16.260;2023-04-06T00:15:50;8.33;;;6.80;;
48205;SDS011;33995;48.202;16.260;2023-04-06T00:18:17;7.93;;;6.20;;
48205;SDS011;33995;48.202;16.260;2023-04-06T00:20:45;7.33;;;6.47;;
48205;SDS011;33995;48.202;16.260;2023-04-06T00:23:12;6.83;;;6.13;;
48205;SDS011;33995;48.202;16.260;2023-04-06T00:25:39;10.03;;;6.77;;
48205;SDS011;33995;48.202;16.260;2023-04-06T00:28:06;7.33;;;6.53;;
48205;SDS011;33995;48.202;16.260;2023-04-06T00:30:33;8.23;;;6.67;;
48205;SDS011;33995;48.202;16.260;2023-04-06T00:33:00;7.03;;;6.33;;
48205;SDS011;33995;48.202;16.260;2023-04-06T00:35:27;7.20;;;6.27;;
48205;SDS011;33995;48.202;16.260;2023-04-06T00:37:54;7.10;;;6.30;;
48205;SDS011;33995;48.202;16.260;2023-04-06T00:40:21;7.53;;;6.60;;
48205;SDS011;33995;48.202;16.260;2023-04-06T00:42:49;8.67;;;6.10;;
48205;SDS011;33995;48.202;16.260;2023-04-06T00:45:16;8.43;;;6.90;;
48205;SDS011;33995;48.202;16.260;2023-04-06T00:47:43;7.57;;;6.77;;
48205;SDS011;33995;48.202;16.260;2023-04-06T00:50:11;7.77;;;6.97;;
48205;SDS011;33995;48.202;16.260;2023-04-06T00:52:38;7.57;;;6.77;;
48205;SDS011;33995;48.202;16.260;2023-04-06T00:55:07;7.33;;;6.53;;
48205;SDS011;33995;48.202;16.260;2023-04-06T00:57:39;8.07;;;6.67;;
48205;SDS011;33995;48.202;16.260;2023-04-06T01:00:06;8.43;;;6.80;;
48205;SDS011;33995;48.202;16.260;2023-04-06T01:02:34;8.07;;;6.63;;
48205;SDS011;33995;48.202;16.260;2023-04-06T01:05:01;7.30;;;6.60;;
48205;SDS011;33995;48.202;16.260;2023-04-06T01:07:42;7.53;;;6.73;;
48205;SDS011;33995;48.202;16.260;2023-04-06T01:10:23;8.03;;;6.80;;
48205;SDS011;33995;48.202;16.260;2023-04-06T01:13:04;8.40;;;6.87;;
48205;SDS011;33995;48.202;16.260;2023-04-06T01:15:46;6.97;;;6.27;;
48205;SDS011;33995;48.202;16.260;2023-04-06T01:18:21;7.43;;;6.60;;
48205;SDS011;33995;48.202;16.260;2023-04-06T01:21:18;7.60;;;6.50;;
48205;SDS011;33995;48.202;16.260;2023-04-06T01:24:06;7.27;;;6.50;;
48205;SDS011;33995;48.202;16.260;2023-04-06T01:26:51;6.93;;;6.23;;
48205;SDS011;33995;48.202;16.260;2023-04-06T01:29:18;7.67;;;6.57;;
48205;SDS011;33995;48.202;16.260;2023-04-06T01:31:45;7.87;;;6.43;;
48205;SDS011;33995;48.202;16.260;2023-04-06T01:34:13;8.10;;;6.50;;
48205;SDS011;33995;48.202;16.260;2023-04-06T01:36:40;7.23;;;6.53;;
48205;SDS011;33995;48.202;16.260;2023-04-06T01:39:20;7.03;;;6.33;;
48205;SDS011;33995;48.202;16.260;2023-04-06T01:41:47;7.73;;;6.40;;
48205;SDS011;33995;48.202;16.260;2023-04-06T01:44:16;6.70;;;5.93;;
48205;SDS011;33995;48.202;16.260;2023-04-06T01:46:50;6.63;;;5.93;;
48205;SDS011;33995;48.202;16.260;2023-04-06T01:49:18;8.30;;;6.47;;
48205;SDS011;33995;48.202;16.260;2023-04-06T01:51:50;7.30;;;6.60;;
48205;SDS011;33995;48.202;16.260;2023-04-06T01:54:18;6.80;;;5.90;;
48205;SDS011;33995;48.202;16.260;2023-04-06T01:57:01;7.27;;;6.33;;
48205;SDS011;33995;48.202;16.260;2023-04-06T01:59:38;7.70;;;6.50;;
48205;SDS011;33995;48.202;16.260;2023-04-06T02:02:12;7.27;;;6.37;;
48205;SDS011;33995;48.202;16.260;2023-04-06T02:04:45;7.43;;;6.60;;
48205;SDS011;33995;48.202;16.260;2023-04-06T02:07:13;8.07;;;6.70;;
48205;SDS011;33995;48.202;16.260;2023-04-06T02:09:41;7.20;;;6.50;;
48205;SDS011;33995;48.202;16.260;2023-04-06T02:12:14;7.37;;;6.57;;
48205;SDS011;33995;48.202;16.260;2023-04-06T02:14:41;7.27;;;6.37;;
48205;SDS011;33995;48.202;16.260;2023-04-06T02:17:08;7.33;;;6.50;;
48205;SDS011;33995;48.202;16.260;2023-04-06T02:19:36;7.03;;;6.33;;
48205;SDS011;33995;48.202;16.260;2023-04-06T02:22:03;7.57;;;6.27;;
48205;SDS011;33995;48.202;16.260;2023-04-06T02:24:31;7.20;;;6.50;;
48205;SDS011;33995;48.202;16.260;2023-04-06T02:26:58;7.73;;;6.57;;
48205;SDS011;33995;48.202;16.260;2023-04-06T02:29:26;7.53;;;6.60;;
48205;SDS011;33995;48.202;16.260;2023-04-06T02:31:53;7.10;;;6.40;;
48205;SDS011;33995;48.202;16.260;2023-04-06T02:34:21;7.80;;;6.37;;
48205;SDS011;33995;48.202;16.260;2023-04-06T02:36:50;6.67;;;5.93;;
48205;SDS011;33995;48.202;16.260;2023-04-06T02:39:17;7.13;;;6.40;;
48205;SDS011;33995;48.202;16.260;2023-04-06T02:41:45;6.93;;;6.23;;
48205;SDS011;33995;48.202;16.260;2023-04-06T02:44:16;7.47;;;6.53;;
48205;SDS011;33995;48.202;16.260;2023-04-06T02:46:46;9.07;;;6.40;;
48205;SDS011;33995;48.202;16.260;2023-04-06T02:49:13;7.00;;;6.30;;
48205;SDS011;33995;48.202;16.260;2023-04-06T02:51:40;7.63;;;6.50;;
48205;SDS011;33995;48.202;16.260;2023-04-06T02:54:21;7.73;;;6.50;;
48205;SDS011;33995;48.202;16.260;2023-04-06T02:56:48;8.20;;;6.70;;
48205;SDS011;33995;48.202;16.260;2023-04-06T02:59:15;7.60;;;6.67;;
48205;SDS011;33995;48.202;16.260;2023-04-06T03:01:51;7.87;;;6.80;;
48205;SDS011;33995;48.202;16.260;2023-04-06T03:04:18;8.27;;;7.30;;
48205;SDS011;33995;48.202;16.260;2023-04-06T03:06:46;7.77;;;6.43;;
48205;SDS011;33995;48.202;16.260;2023-04-06T03:09:25;7.23;;;6.50;;
48205;SDS011;33995;48.202;16.260;2023-04-06T03:11:53;7.57;;;6.43;;
48205;SDS011;33995;48.202;16.260;2023-04-06T03:14:22;7.17;;;6.47;;
48205;SDS011;33995;48.202;16.260;2023-04-06T03:16:49;7.13;;;6.43;;
48205;SDS011;33995;48.202;16.260;2023-04-06T03:19:20;7.50;;;6.30;;
48205;SDS011;33995;48.202;16.260;2023-04-06T03:21:47;8.47;;;6.60;;
48205;SDS011;33995;48.202;16.260;2023-04-06T03:24:16;7.10;;;6.23;;
48205;SDS011;33995;48.202;16.260;2023-04-06T03:26:43;8.13;;;6.60;;
48205;SDS011;33995;48.202;16.260;2023-04-06T03:29:10;7.00;;;6.30;;
48205;SDS011;33995;48.202;16.260;2023-04-06T03:31:37;7.10;;;6.33;;
48205;SDS011;33995;48.202;16.260;2023-04-06T03:34:11;8.30;;;6.50;;
48205;SDS011;33995;48.202;16.260;2023-04-06T03:36:39;7.27;;;6.57;;
48205;SDS011;33995;48.202;16.260;2023-04-06T03:39:06;6.90;;;6.20;;
48205;SDS011;33995;48.202;16.260;2023-04-06T03:41:37;7.00;;;6.30;;
48205;SDS011;33995;48.202;16.260;2023-04-06T03:44:13;7.13;;;5.97;;
48205;SDS011;33995;48.202;16.260;2023-04-06T03:46:43;7.37;;;6.57;;
48205;SDS011;33995;48.202;16.260;2023-04-06T03:49:10;8.07;;;6.50;;
48205;SDS011;33995;48.202;16.260;2023-04-06T03:51:38;7.23;;;6.53;;
48205;SDS011;33995;48.202;16.260;2023-04-06T03:54:07;7.80;;;6.70;;
48205;SDS011;33995;48.202;16.260;2023-04-06T03:56:35;7.63;;;6.40;;
48205;SDS011;33995;48.202;16.260;2023-04-06T03:59:02;7.63;;;6.47;;
48205;SDS011;33995;48.202;16.260;2023-04-06T04:01:30;10.07;;;8.50;;
48205;SDS011;33995;48.202;16.260;2023-04-06T04:03:57;11.03;;;9.17;;
48205;SDS011;33995;48.202;16.260;2023-04-06T04:06:25;12.17;;;9.97;;
48205;SDS011;33995;48.202;16.260;2023-04-06T04:08:51;11.20;;;9.23;;
48205;SDS011;33995;48.202;16.260;2023-04-06T04:11:19;10.73;;;8.93;;
48205;SDS011;33995;48.202;16.260;2023-04-06T04:13:52;9.43;;;8.23;;
48205;SDS011;33995;48.202;16.260;2023-04-06T04:16:18;8.53;;;7.47;;
48205;SDS011;33995;48.202;16.260;2023-04-06T04:18:46;7.93;;;7.13;;
48205;SDS011;33995;48.202;16.260;2023-04-06T04:21:14;7.53;;;6.83;;
48205;SDS011;33995;48.202;16.260;2023-04-06T04:23:42;9.03;;;7.60;;
48205;SDS011;33995;48.202;16.260;2023-04-06T04:26:09;8.90;;;7.97;;
48205;SDS011;33995;48.202;16.260;2023-04-06T04:28:36;8.47;;;7.63;;
48205;SDS011;33995;48.202;16.260;2023-04-06T04:31:03;8.00;;;7.00;;
48205;SDS011;33995;48.202;16.260;2023-04-06T04:33:33;7.97;;;6.97;;
48205;SDS011;33995;48.202;16.260;2023-04-06T04:36:04;7.40;;;6.67;;
48205;SDS011;33995;48.202;16.260;2023-04-06T04:38:38;8.00;;;6.77;;
48205;SDS011;33995;48.202;16.260;2023-04-06T04:41:05;7.50;;;6.80;;
48205;SDS011;33995;48.202;16.260;2023-04-06T04:43:34;9.57;;;7.83;;
48205;SDS011;33995;48.202;16.260;2023-04-06T04:46:02;9.20;;;7.53;;
48205;SDS011;33995;48.202;16.260;2023-04-06T04:48:41;9.13;;;8.17;;
48205;SDS011;33995;48.202;16.260;2023-04-06T04:51:08;12.77;;;9.80;;
48205;SDS011;33995;48.202;16.260;2023-04-06T04:53:47;12.60;;;9.97;;
48205;SDS011;33995;48.202;16.260;2023-04-06T04:56:24;10.03;;;8.90;;
48205;SDS011;33995;48.202;16.260;2023-04-06T04:58:57;12.47;;;9.70;;
48205;SDS011;33995;48.202;16.260;2023-04-06T05:01:27;9.40;;;8.30;;
48205;SDS011;33995;48.202;16.260;2023-04-06T05:03:54;9.97;;;7.77;;
48205;SDS011;33995;48.202;16.260;2023-04-06T05:06:21;11.27;;;8.37;;
48205;SDS011;33995;48.202;16.260;2023-04-06T05:08:48;9.80;;;7.80;;
48205;SDS011;33995;48.202;16.260;2023-04-06T05:11:15;8.00;;;7.20;;
48205;SDS011;33995;48.202;16.260;2023-04-06T05:13:48;10.07;;;8.10;;
48205;SDS011;33995;48.202;16.260;2023-04-06T05:16:19;12.00;;;10.73;;
48205;SDS011;33995;48.202;16.260;2023-04-06T05:18:47;12.03;;;9.57;;
48205;SDS011;33995;48.202;16.260;2023-04-06T05:21:15;10.20;;;9.20;;
48205;SDS011;33995;48.202;16.260;2023-04-06T05:23:54;11.83;;;8.57;;
48205;SDS011;33995;48.202;16.260;2023-04-06T05:26:21;10.40;;;7.93;;
48205;SDS011;33995;48.202;16.260;2023-04-06T05:28:52;9.57;;;7.97;;
48205;SDS011;33995;48.202;16.260;2023-04-06T05:31:21;9.03;;;8.13;;
48205;SDS011;33995;48.202;16.260;2023-04-06T05:33:50;9.23;;;8.30;;
48205;SDS011;33995;48.202;16.260;2023-04-06T05:36:27;8.83;;;7.80;;
48205;SDS011;33995;48.202;16.260;2023-04-06T05:38:54;12.53;;;9.60;;
48205;SDS011;33995;48.202;16.260;2023-04-06T05:41:42;8.33;;;7.47;;
48205;SDS011;33995;48.202;16.260;2023-04-06T05:44:11;7.03;;;6.37;;
48205;SDS011;33995;48.202;16.260;2023-04-06T05:46:41;7.97;;;7.13;;
48205;SDS011;33995;48.202;16.260;2023-04-06T05:49:12;9.30;;;6.90;;
48205;SDS011;33995;48.202;16.260;2023-04-06T05:51:39;7.87;;;7.10;;
48205;SDS011;33995;48.202;16.260;2023-04-06T05:54:06;7.40;;;6.60;;
48205;SDS011;33995;48.202;16.260;2023-04-06T05:56:33;8.70;;;6.80;;
48205;SDS011;33995;48.202;16.260;2023-04-06T05:59:01;9.77;;;7.53;;
48205;SDS011;33995;48.202;16.260;2023-04-06T06:01:30;8.33;;;7.03;;
48205;SDS011;33995;48.202;16.260;2023-04-06T06:03:58;7.37;;;6.67;;
48205;SDS011;33995;48.202;16.260;2023-04-06T06:06:30;7.67;;;6.73;;
48205;SDS011;33995;48.202;16.260;2023-04-06T06:09:18;7.70;;;6.90;;
48205;SDS011;33995;48.202;16.260;2023-04-06T06:11:56;7.80;;;7.00;;
48205;SDS011;33995;48.202;16.260;2023-04-06T06:14:25;7.53;;;6.80;;
48205;SDS011;33995;48.202;16.260;2023-04-06T06:16:55;6.77;;;6.17;;
48205;SDS011;33995;48.202;16.260;2023-04-06T06:19:22;7.30;;;6.40;;
48205;SDS011;33995;48.202;16.260;2023-04-06T06:21:52;8.03;;;6.67;;
48205;SDS011;33995;48.202;16.260;2023-04-06T06:24:19;6.93;;;6.30;;
48205;SDS011;33995;48.202;16.260;2023-04-06T06:26:47;7.80;;;6.03;;
48205;SDS011;33995;48.202;16.260;2023-04-06T06:29:17;7.87;;;7.10;;
48205;SDS011;33995;48.202;16.260;2023-04-06T06:31:44;7.33;;;6.53;;
48205;SDS011;33995;48.202;16.260;2023-04-06T06:34:11;7.27;;;6.50;;
48205;SDS011;33995;48.202;16.260;2023-04-06T06:36:40;7.60;;;6.90;;
48205;SDS011;33995;48.202;16.260;2023-04-06T06:39:10;9.00;;;7.03;;
48205;SDS011;33995;48.202;16.260;2023-04-06T06:41:38;7.30;;;6.60;;
48205;SDS011;33995;48.202;16.260;2023-04-06T06:44:05;7.60;;;6.90;;
48205;SDS011;33995;48.202;16.260;2023-04-06T06:46:33;8.83;;;7.40;;
48205;SDS011;33995;48.202;16.260;2023-04-06T06:49:00;8.93;;;7.13;;
48205;SDS011;33995;48.202;16.260;2023-04-06T06:51:27;7.90;;;7.13;;
48205;SDS011;33995;48.202;16.260;2023-04-06T06:53:54;8.00;;;7.20;;
48205;SDS011;33995;48.202;16.260;2023-04-06T06:56:21;7.73;;;7.00;;
48205;SDS011;33995;48.202;16.260;2023-04-06T06:58:50;7.60;;;6.80;;
48205;SDS011;33995;48.202;16.260;2023-04-06T07:01:18;7.87;;;7.00;;
48205;SDS011;33995;48.202;16.260;2023-04-06T07:03:45;8.20;;;7.40;;
48205;SDS011;33995;48.202;16.260;2023-04-06T07:06:12;7.93;;;7.13;;
48205;SDS011;33995;48.202;16.260;2023-04-06T07:08:39;7.47;;;6.77;;
48205;SDS011;33995;48.202;16.260;2023-04-06T07:11:07;8.27;;;7.30;;
48205;SDS011;33995;48.202;16.260;2023-04-06T07:13:34;8.57;;;7.13;;
48205;SDS011;33995;48.202;16.260;2023-04-06T07:16:02;8.43;;;7.63;;
48205;SDS011;33995;48.202;16.260;2023-04-06T07:18:29;9.53;;;7.33;;
48205;SDS011;33995;48.202;16.260;2023-04-06T07:20:59;8.40;;;7.60;;
48205;SDS011;33995;48.202;16.260;2023-04-06T07:23:26;7.77;;;6.90;;
48205;SDS011;33995;48.202;16.260;2023-04-06T07:25:53;7.87;;;7.07;;
48205;SDS011;33995;48.202;16.260;2023-04-06T07:28:21;7.67;;;6.97;;
48205;SDS011;33995;48.202;16.260;2023-04-06T07:30:48;8.00;;;7.20;;
48205;SDS011;33995;48.202;16.260;2023-04-06T07:33:16;7.90;;;7.10;;
48205;SDS011;33995;48.202;16.260;2023-04-06T07:35:43;7.70;;;7.00;;
48205;SDS011;33995;48.202;16.260;2023-04-06T07:38:10;8.37;;;7.57;;
48205;SDS011;33995;48.202;16.260;2023-04-06T07:40:39;8.93;;;7.80;;
48205;SDS011;33995;48.202;16.260;2023-04-06T07:43:06;7.87;;;7.00;;
48205;SDS011;33995;48.202;16.260;2023-04-06T07:45:34;8.47;;;7.33;;
48205;SDS011;33995;48.202;16.260;2023-04-06T07:48:01;8.33;;;7.13;;
48205;SDS011;33995;48.202;16.260;2023-04-06T07:50:29;7.73;;;6.93;;
48205;SDS011;33995;48.202;16.260;2023-04-06T07:52:57;8.43;;;7.37;;
48205;SDS011;33995;48.202;16.260;2023-04-06T07:55:24;8.00;;;7.20;;
48205;SDS011;33995;48.202;16.260;2023-04-06T07:57:51;7.87;;;7.00;;
48205;SDS011;33995;48.202;16.260;2023-04-06T08:00:18;8.20;;;6.83;;
48205;SDS011;33995;48.202;16.260;2023-04-06T08:02:46;8.67;;;6.90;;
48205;SDS011;33995;48.202;16.260;2023-04-06T08:05:13;7.77;;;7.00;;
48205;SDS011;33995;48.202;16.260;2023-04-06T08:07:40;7.47;;;6.70;;
48205;SDS011;33995;48.202;16.260;2023-04-06T08:10:08;7.23;;;6.53;;
48205;SDS011;33995;48.202;16.260;2023-04-06T08:12:35;7.60;;;6.20;;
48205;SDS011;33995;48.202;16.260;2023-04-06T08:15:02;7.97;;;6.70;;
48205;SDS011;33995;48.202;16.260;2023-04-06T08:17:31;6.87;;;6.17;;
48205;SDS011;33995;48.202;16.260;2023-04-06T08:19:58;8.30;;;7.20;;
48205;SDS011;33995;48.202;16.260;2023-04-06T08:22:26;6.63;;;5.90;;
48205;SDS011;33995;48.202;16.260;2023-04-06T08:24:52;6.87;;;6.17;;
48205;SDS011;33995;48.202;16.260;2023-04-06T08:27:19;6.50;;;5.90;;
48205;SDS011;33995;48.202;16.260;2023-04-06T08:29:47;6.90;;;6.20;;
48205;SDS011;33995;48.202;16.260;2023-04-06T08:32:16;7.07;;;6.37;;
48205;SDS011;33995;48.202;16.260;2023-04-06T08:34:42;7.40;;;6.03;;
48205;SDS011;33995;48.202;16.260;2023-04-06T08:37:09;6.57;;;5.87;;
48205;SDS011;33995;48.202;16.260;2023-04-06T08:39:37;7.87;;;5.90;;
48205;SDS011;33995;48.202;16.260;2023-04-06T08:42:03;7.87;;;7.17;;
48205;SDS011;33995;48.202;16.260;2023-04-06T08:44:32;6.40;;;5.80;;
48205;SDS011;33995;48.202;16.260;2023-04-06T08:46:59;7.13;;;6.00;;
48205;SDS011;33995;48.202;16.260;2023-04-06T08:49:27;6.37;;;5.67;;
48205;SDS011;33995;48.202;16.260;2023-04-06T08:51:54;7.10;;;6.40;;
48205;SDS011;33995;48.202;16.260;2023-04-06T08:54:23;5.73;;;5.23;;
48205;SDS011;33995;48.202;16.260;2023-04-06T08:56:51;5.50;;;5.00;;
48205;SDS011;33995;48.202;16.260;2023-04-06T08:59:19;6.20;;;5.60;;
48205;SDS011;33995;48.202;16.260;2023-04-06T09:01:46;5.80;;;4.97;;
48205;SDS011;33995;48.202;16.260;2023-04-06T09:04:13;5.40;;;4.90;;
48205;SDS011;33995;48.202;16.260;2023-04-06T09:06:42;6.00;;;5.40;;
48205;SDS011;33995;48.202;16.260;2023-04-06T09:09:09;6.67;;;5.80;;
48205;SDS011;33995;48.202;16.260;2023-04-06T09:11:47;6.50;;;5.50;;
48205;SDS011;33995;48.202;16.260;2023-04-06T09:14:16;6.00;;;5.40;;
48205;SDS011;33995;48.202;16.260;2023-04-06T09:16:59;5.27;;;4.73;;
48205;SDS011;33995;48.202;16.260;2023-04-06T09:19:26;5.00;;;4.60;;
48205;SDS011;33995;48.202;16.260;2023-04-06T09:22:03;5.83;;;4.60;;
48205;SDS011;33995;48.202;16.260;2023-04-06T09:24:44;5.33;;;4.70;;
48205;SDS011;33995;48.202;16.260;2023-04-06T09:27:12;5.23;;;4.50;;
48205;SDS011;33995;48.202;16.260;2023-04-06T09:29:40;4.80;;;4.30;;
48205;SDS011;33995;48.202;16.260;2023-04-06T09:32:08;5.47;;;4.57;;
48205;SDS011;33995;48.202;16.260;2023-04-06T09:34:43;4.93;;;4.40;;
48205;SDS011;33995;48.202;16.260;2023-04-06T09:37:17;6.27;;;5.63;;
48205;SDS011;33995;48.202;16.260;2023-04-06T09:39:45;6.30;;;5.70;;
48205;SDS011;33995;48.202;16.260;2023-04-06T09:42:33;6.27;;;5.17;;
48205;SDS011;33995;48.202;16.260;2023-04-06T09:45:01;5.67;;;4.73;;
48205;SDS011;33995;48.202;16.260;2023-04-06T09:47:32;5.60;;;4.00;;
48205;SDS011;33995;48.202;16.260;2023-04-06T09:50:02;3.90;;;3.50;;
48205;SDS011;33995;48.202;16.260;2023-04-06T09:52:34;4.03;;;3.30;;
48205;SDS011;33995;48.202;16.260;2023-04-06T09:55:04;3.73;;;3.27;;
48205;SDS011;33995;48.202;16.260;2023-04-06T09:57:40;3.57;;;3.20;;
48205;SDS011;33995;48.202;16.260;2023-04-06T10:00:14;3.40;;;3.10;;
48205;SDS011;33995;48.202;16.260;2023-04-06T10:02:56;3.43;;;3.13;;
48205;SDS011;33995;48.202;16.260;2023-04-06T10:05:38;3.43;;;3.13;;
48205;SDS011;33995;48.202;16.260;2023-04-06T10:08:11;3.43;;;3.13;;
48205;SDS011;33995;48.202;16.260;2023-04-06T10:10:39;4.70;;;4.20;;
48205;SDS011;33995;48.202;16.260;2023-04-06T10:13:07;3.67;;;3.00;;
48205;SDS011;33995;48.202;16.260;2023-04-06T10:15:37;4.30;;;3.27;;
48205;SDS011;33995;48.202;16.260;2023-04-06T10:18:06;3.40;;;2.93;;
48205;SDS011;33995;48.202;16.260;2023-04-06T10:20:47;4.10;;;3.13;;
48205;SDS011;33995;48.202;16.260;2023-04-06T10:23:34;4.20;;;3.70;;
48205;SDS011;33995;48.202;16.260;2023-04-06T10:26:03;3.60;;;3.30;;
48205;SDS011;33995;48.202;16.260;2023-04-06T10:28:31;4.10;;;3.70;;
48205;SDS011;33995;48.202;16.260;2023-04-06T10:31:04;3.87;;;3.57;;
48205;SDS011;33995;48.202;16.260;2023-04-06T10:33:32;3.53;;;3.20;;
48205;SDS011;33995;48.202;16.260;2023-04-06T10:36:21;5.57;;;3.90;;
48205;SDS011;33995;48.202;16.260;2023-04-06T10:38:56;4.10;;;3.70;;
48205;SDS011;33995;48.202;16.260;2023-04-06T10:41:35;4.73;;;4.07;;
48205;SDS011;33995;48.202;16.260;2023-04-06T10:44:19;3.60;;;3.30;;
48205;SDS011;33995;48.202;16.260;2023-04-06T10:49:22;4.80;;;4.40;;
48205;SDS011;33995;48.202;16.260;2023-04-06T10:51:56;3.90;;;3.60;;
48205;SDS011;33995;48.202;16.260;2023-04-06T10:54:24;3.93;;;3.47;;
48205;SDS011;33995;48.202;16.260;2023-04-06T10:56:53;4.20;;;3.80;;
48205;SDS011;33995;48.202;16.260;2023-04-06T10:59:20;4.43;;;4.00;;
48205;SDS011;33995;48.202;16.260;2023-04-06T11:01:49;4.00;;;3.70;;
48205;SDS011;33995;48.202;16.260;2023-04-06T11:04:17;4.17;;;3.77;;
48205;SDS011;33995;48.202;16.260;2023-04-06T11:06:48;4.40;;;4.00;;
48205;SDS011;33995;48.202;16.260;2023-04-06T11:09:27;4.20;;;3.80;;
48205;SDS011;33995;48.202;16.260;2023-04-06T11:11:55;3.83;;;3.43;;
48205;SDS011;33995;48.202;16.260;2023-04-06T11:14:23;4.10;;;3.50;;
48205;SDS011;33995;48.202;16.260;2023-04-06T11:16:50;4.83;;;3.67;;
48205;SDS011;33995;48.202;16.260;2023-04-06T11:19:17;4.23;;;3.60;;
48205;SDS011;33995;48.202;16.260;2023-04-06T11:21:45;4.00;;;3.60;;
48205;SDS011;33995;48.202;16.260;2023-04-06T11:24:23;3.67;;;3.37;;
48205;SDS011;33995;48.202;16.260;2023-04-06T11:26:52;4.97;;;3.50;;
48205;SDS011;33995;48.202;16.260;2023-04-06T11:29:24;4.57;;;3.50;;
48205;SDS011;33995;48.202;16.260;2023-04-06T11:32:00;3.43;;;3.13;;
48205;SDS011;33995;48.202;16.260;2023-04-06T11:34:29;4.37;;;3.87;;
48205;SDS011;33995;48.202;16.260;2023-04-06T11:37:02;3.83;;;3.40;;
48205;SDS011;33995;48.202;16.260;2023-04-06T11:39:37;4.07;;;3.43;;
48205;SDS011;33995;48.202;16.260;2023-04-06T11:42:12;3.40;;;3.10;;
48205;SDS011;33995;48.202;16.260;2023-04-06T11:44:49;3.83;;;3.07;;
48205;SDS011;33995;48.202;16.260;2023-04-06T11:47:17;3.33;;;3.00;;
48205;SDS011;33995;48.202;16.260;2023-04-06T11:49:44;3.50;;;3.20;;
48205;SDS011;33995;48.202;16.260;2023-04-06T11:54:52;4.33;;;3.43;;
48205;SDS011;33995;48.202;16.260;2023-04-06T11:57:21;3.50;;;3.20;;
48205;SDS011;33995;48.202;16.260;2023-04-06T11:59:52;3.87;;;3.50;;
48205;SDS011;33995;48.202;16.260;2023-04-06T12:02:19;4.33;;;3.93;;
48205;SDS011;33995;48.202;16.260;2023-04-06T12:04:46;4.30;;;3.90;;
48205;SDS011;33995;48.202;16.260;2023-04-06T12:07:13;4.07;;;3.70;;
48205;SDS011;33995;48.202;16.260;2023-04-06T12:09:41;3.60;;;3.30;;
48205;SDS011;33995;48.202;16.260;2023-04-06T12:12:09;4.47;;;3.33;;
48205;SDS011;33995;48.202;16.260;2023-04-06T12:14:36;4.33;;;3.93;;
48205;SDS011;33995;48.202;16.260;2023-04-06T12:17:03;4.50;;;4.10;;
48205;SDS011;33995;48.202;16.260;2023-04-06T12:19:30;4.93;;;3.80;;
48205;SDS011;33995;48.202;16.260;2023-04-06T12:21:58;4.30;;;3.90;;
48205;SDS011;33995;48.202;16.260;2023-04-06T12:24:25;4.50;;;4.03;;
48205;SDS011;33995;48.202;16.260;2023-04-06T12:26:52;4.30;;;3.90;;
48205;SDS011;33995;48.202;16.260;2023-04-06T12:29:35;4.90;;;4.07;;
48205;SDS011;33995;48.202;16.260;2023-04-06T12:32:02;4.00;;;3.60;;
48205;SDS011;33995;48.202;16.260;2023-04-06T12:34:29;4.20;;;3.80;;
48205;SDS011;33995;48.202;16.260;2023-04-06T12:36:56;4.07;;;3.67;;
48205;SDS011;33995;48.202;16.260;2023-04-06T12:39:23;4.03;;;3.60;;
48205;SDS011;33995;48.202;16.260;2023-04-06T12:41:52;4.30;;;3.90;;
48205;SDS011;33995;48.202;16.260;2023-04-06T12:44:19;3.70;;;3.40;;
48205;SDS011;33995;48.202;16.260;2023-04-06T12:46:46;4.13;;;3.40;;
48205;SDS011;33995;48.202;16.260;2023-04-06T12:49:13;4.00;;;3.53;;
48205;SDS011;33995;48.202;16.260;2023-04-06T12:51:43;4.13;;;3.73;;
48205;SDS011;33995;48.202;16.260;2023-04-06T12:54:10;3.50;;;3.20;;
48205;SDS011;33995;48.202;16.260;2023-04-06T12:56:38;3.20;;;3.00;;
48205;SDS011;33995;48.202;16.260;2023-04-06T12:59:05;3.13;;;2.83;;
48205;SDS011;33995;48.202;16.260;2023-04-06T13:01:33;3.40;;;3.10;;
48205;SDS011;33995;48.202;16.260;2023-04-06T13:04:00;4.97;;;3.30;;
48205;SDS011;33995;48.202;16.260;2023-04-06T13:06:27;3.30;;;3.00;;
48205;SDS011;33995;48.202;16.260;2023-04-06T13:08:55;3.53;;;2.80;;
48205;SDS011;33995;48.202;16.260;2023-04-06T13:11:22;3.50;;;3.20;;
48205;SDS011;33995;48.202;16.260;2023-04-06T13:13:54;4.13;;;3.13;;
48205;SDS011;33995;48.202;16.260;2023-04-06T13:16:21;4.20;;;3.90;;
48205;SDS011;33995;48.202;16.260;2023-04-06T13:18:48;3.37;;;3.07;;
48205;SDS011;33995;48.202;16.260;2023-04-06T13:21:16;3.50;;;3.20;;
48205;SDS011;33995;48.202;16.260;2023-04-06T13:23:43;4.07;;;3.67;;
48205;SDS011;33995;48.202;16.260;2023-04-06T13:26:11;3.83;;;3.43;;
48205;SDS011;33995;48.202;16.260;2023-04-06T13:28:40;4.13;;;3.73;;
48205;SDS011;33995;48.202;16.260;2023-04-06T13:31:07;4.70;;;3.70;;
48205;SDS011;33995;48.202;16.260;2023-04-06T13:33:36;4.83;;;4.13;;
48205;SDS011;33995;48.202;16.260;2023-04-06T13:36:03;4.20;;;3.77;;
48205;SDS011;33995;48.202;16.260;2023-04-06T13:38:32;4.07;;;3.67;;
48205;SDS011;33995;48.202;16.260;2023-04-06T13:41:00;5.57;;;3.70;;
48205;SDS011;33995;48.202;16.260;2023-04-06T13:43:27;4.10;;;3.57;;
48205;SDS011;33995;48.202;16.260;2023-04-06T13:45:54;4.87;;;4.47;;
48205;SDS011;33995;48.202;16.260;2023-04-06T13:48:22;4.53;;;3.80;;
48205;SDS011;33995;48.202;16.260;2023-04-06T13:50:49;4.33;;;3.93;;
48205;SDS011;33995;48.202;16.260;2023-04-06T13:53:16;4.17;;;3.63;;
48205;SDS011;33995;48.202;16.260;2023-04-06T13:55:43;3.73;;;3.30;;
48205;SDS011;33995;48.202;16.260;2023-04-06T13:58:18;3.97;;;3.17;;
48205;SDS011;33995;48.202;16.260;2023-04-06T14:00:45;4.40;;;3.90;;
48205;SDS011;33995;48.202;16.260;2023-04-06T14:03:12;3.57;;;3.27;;
48205;SDS011;33995;48.202;16.260;2023-04-06T14:05:39;4.60;;;3.37;;
48205;SDS011;33995;48.202;16.260;2023-04-06T14:08:07;4.80;;;3.87;;
48205;SDS011;33995;48.202;16.260;2023-04-06T14:10:38;3.97;;;3.20;;
48205;SDS011;33995;48.202;16.260;2023-04-06T14:13:06;4.60;;;3.70;;
48205;SDS011;33995;48.202;16.260;2023-04-06T14:15:34;4.90;;;4.50;;
48205;SDS011;33995;48.202;16.260;2023-04-06T14:18:01;4.77;;;4.37;;
48205;SDS011;33995;48.202;16.260;2023-04-06T14:20:30;3.67;;;3.37;;
48205;SDS011;33995;48.202;16.260;2023-04-06T14:23:02;4.27;;;3.60;;
48205;SDS011;33995;48.202;16.260;2023-04-06T14:25:29;4.30;;;3.90;;
48205;SDS011;33995;48.202;16.260;2023-04-06T14:27:58;4.37;;;3.97;;
48205;SDS011;33995;48.202;16.260;2023-04-06T14:30:25;3.97;;;3.40;;
48205;SDS011;33995;48.202;16.260;2023-04-06T14:32:56;3.30;;;3.00;;
48205;SDS011;33995;48.202;16.260;2023-04-06T14:35:24;5.07;;;3.97;;
48205;SDS011;33995;48.202;16.260;2023-04-06T14:37:55;5.00;;;4.10;;
48205;SDS011;33995;48.202;16.260;2023-04-06T14:40:24;3.77;;;3.37;;
48205;SDS011;33995;48.202;16.260;2023-04-06T14:42:51;4.20;;;3.80;;
48205;SDS011;33995;48.202;16.260;2023-04-06T14:45:18;4.00;;;3.70;;
48205;SDS011;33995;48.202;16.260;2023-04-06T14:47:48;5.20;;;3.80;;
48205;SDS011;33995;48.202;16.260;2023-04-06T14:50:15;3.70;;;3.40;;
48205;SDS011;33995;48.202;16.260;2023-04-06T14:52:42;3.47;;;3.17;;